sensor_id;sensor_type;location;lat;lon;timestamp;P1;durP1;ratioP1;P2;durP2;ratioP2
20792;SDS011;10556;-33.662;151.094;2022-11-20T00:02:34;1.23;;;0.20;;
20792;SDS011;10556;-33.662;151.094;2022-11-20T00:07:37;1.20;;;0.43;;
20792;SDS011;10556;-33.662;151.094;2022-11-20T00:12:41;1.60;;;0.40;;
20792;SDS011;10556;-33.662;151.094;2022-11-20T00:17:44;12.32;;;1.90;;
20792;SDS011;10556;-33.662;151.094;2022-11-20T00:22:47;14.02;;;2.53;;
20792;SDS011;10556;-33.662;151.094;2022-11-20T00:27:52;5.82;;;1.05;;
20792;SDS011;10556;-33.662;151.094;2022-11-20T00:32:56;4.10;;;0.75;;
20792;SDS011;10556;-33.662;151.094;2022-11-20T00:37:59;1.13;;;0.55;;
20792;SDS011;10556;-33.662;151.094;2022-11-20T00:43:03;13.23;;;1.60;;
20792;SDS011;10556;-33.662;151.094;2022-11-20T00:48:05;16.17;;;2.72;;
20792;SDS011;10556;-33.662;151.094;2022-11-20T00:53:08;14.10;;;2.70;;
20792;SDS011;10556;-33.662;151.094;2022-11-20T00:58:12;5.38;;;1.00;;
20792;SDS011;10556;-33.662;151.094;2022-11-20T01:03:15;11.13;;;2.10;;
20792;SDS011;10556;-33.662;151.094;2022-11-20T01:08:18;8.98;;;1.48;;
20792;SDS011;10556;-33.662;151.094;2022-11-20T01:13:22;2.85;;;0.40;;
20792;SDS011;10556;-33.662;151.094;2022-11-20T01:18:25;9.55;;;1.10;;
20792;SDS011;10556;-33.662;151.094;2022-11-20T01:23:27;5.95;;;0.70;;
20792;SDS011;10556;-33.662;151.094;2022-11-20T01:28:34;13.48;;;1.98;;
20792;SDS011;10556;-33.662;151.094;2022-11-20T01:33:37;2.35;;;0.43;;
20792;SDS011;10556;-33.662;151.094;2022-11-20T01:38:40;14.55;;;2.00;;
20792;SDS011;10556;-33.662;151.094;2022-11-20T01:43:45;24.02;;;3.88;;
20792;SDS011;10556;-33.662;151.094;2022-11-20T01:48:49;8.13;;;1.98;;
20792;SDS011;10556;-33.662;151.094;2022-11-20T01:53:55;0.68;;;0.30;;
20792;SDS011;10556;-33.662;151.094;2022-11-20T01:59:03;4.55;;;0.80;;
20792;SDS011;10556;-33.662;151.094;2022-11-20T02:04:07;6.22;;;0.85;;
20792;SDS011;10556;-33.662;151.094;2022-11-20T02:09:11;7.45;;;0.57;;
20792;SDS011;10556;-33.662;151.094;2022-11-20T02:14:16;2.70;;;0.28;;
20792;SDS011;10556;-33.662;151.094;2022-11-20T02:19:22;2.33;;;0.40;;
20792;SDS011;10556;-33.662;151.094;2022-11-20T02:24:29;2.00;;;0.38;;
20792;SDS011;10556;-33.662;151.094;2022-11-20T02:29:32;2.72;;;0.38;;
20792;SDS011;10556;-33.662;151.094;2022-11-20T02:34:40;1.45;;;0.20;;
20792;SDS011;10556;-33.662;151.094;2022-11-20T02:39:45;0.52;;;0.20;;
20792;SDS011;10556;-33.662;151.094;2022-11-20T02:44:49;1.20;;;0.40;;
20792;SDS011;10556;-33.662;151.094;2022-11-20T02:49:52;1.10;;;0.35;;
20792;SDS011;10556;-33.662;151.094;2022-11-20T02:54:56;0.30;;;0.30;;
20792;SDS011;10556;-33.662;151.094;2022-11-20T02:59:59;1.70;;;0.40;;
20792;SDS011;10556;-33.662;151.094;2022-11-20T03:05:01;4.90;;;0.40;;
20792;SDS011;10556;-33.662;151.094;2022-11-20T03:10:06;2.05;;;0.20;;
20792;SDS011;10556;-33.662;151.094;2022-11-20T03:15:09;1.55;;;0.20;;
20792;SDS011;10556;-33.662;151.094;2022-11-20T03:20:12;0.28;;;0.20;;
20792;SDS011;10556;-33.662;151.094;2022-11-20T03:25:17;4.60;;;0.60;;
20792;SDS011;10556;-33.662;151.094;2022-11-20T03:30:19;0.20;;;0.10;;
20792;SDS011;10556;-33.662;151.094;2022-11-20T03:35:22;0.73;;;0.20;;
20792;SDS011;10556;-33.662;151.094;2022-11-20T03:40:26;0.50;;;0.15;;
20792;SDS011;10556;-33.662;151.094;2022-11-20T03:45:29;4.55;;;0.30;;
20792;SDS011;10556;-33.662;151.094;2022-11-20T03:50:31;0.20;;;0.10;;
20792;SDS011;10556;-33.662;151.094;2022-11-20T03:55:36;0.15;;;0.10;;
20792;SDS011;10556;-33.662;151.094;2022-11-20T04:00:38;2.00;;;0.20;;
20792;SDS011;10556;-33.662;151.094;2022-11-20T04:05:41;0.38;;;0.10;;
20792;SDS011;10556;-33.662;151.094;2022-11-20T04:10:45;0.30;;;0.10;;
20792;SDS011;10556;-33.662;151.094;2022-11-20T04:15:48;0.98;;;0.20;;
20792;SDS011;10556;-33.662;151.094;2022-11-20T04:20:50;1.08;;;0.20;;
20792;SDS011;10556;-33.662;151.094;2022-11-20T04:25:55;1.65;;;0.22;;
20792;SDS011;10556;-33.662;151.094;2022-11-20T04:31:05;2.10;;;0.10;;
20792;SDS011;10556;-33.662;151.094;2022-11-20T04:36:10;0.00;;;0.00;;
20792;SDS011;10556;-33.662;151.094;2022-11-20T04:41:16;1.20;;;0.20;;
20792;SDS011;10556;-33.662;151.094;2022-11-20T04:46:19;0.63;;;0.10;;
20792;SDS011;10556;-33.662;151.094;2022-11-20T04:51:22;0.10;;;0.10;;
20792;SDS011;10556;-33.662;151.094;2022-11-20T04:56:27;3.15;;;0.20;;
20792;SDS011;10556;-33.662;151.094;2022-11-20T05:01:29;0.05;;;0.03;;
20792;SDS011;10556;-33.662;151.094;2022-11-20T05:06:32;2.13;;;0.20;;
20792;SDS011;10556;-33.662;151.094;2022-11-20T05:11:37;0.57;;;0.10;;
20792;SDS011;10556;-33.662;151.094;2022-11-20T05:16:39;1.55;;;0.32;;
20792;SDS011;10556;-33.662;151.094;2022-11-20T05:21:42;2.53;;;0.47;;
20792;SDS011;10556;-33.662;151.094;2022-11-20T05:26:46;7.57;;;1.02;;
20792;SDS011;10556;-33.662;151.094;2022-11-20T05:31:49;9.82;;;0.70;;
20792;SDS011;10556;-33.662;151.094;2022-11-20T05:36:51;10.70;;;1.15;;
20792;SDS011;10556;-33.662;151.094;2022-11-20T05:41:56;3.38;;;0.80;;
20792;SDS011;10556;-33.662;151.094;2022-11-20T05:46:58;1.60;;;0.45;;
20792;SDS011;10556;-33.662;151.094;2022-11-20T05:52:01;6.80;;;0.90;;
20792;SDS011;10556;-33.662;151.094;2022-11-20T05:57:05;4.05;;;0.60;;
20792;SDS011;10556;-33.662;151.094;2022-11-20T06:02:08;14.90;;;2.10;;
20792;SDS011;10556;-33.662;151.094;2022-11-20T06:07:11;7.85;;;1.20;;
20792;SDS011;10556;-33.662;151.094;2022-11-20T06:12:15;7.00;;;0.80;;
20792;SDS011;10556;-33.662;151.094;2022-11-20T06:17:18;4.43;;;0.88;;
20792;SDS011;10556;-33.662;151.094;2022-11-20T06:22:20;2.33;;;0.75;;
20792;SDS011;10556;-33.662;151.094;2022-11-20T06:27:25;0.57;;;0.40;;
20792;SDS011;10556;-33.662;151.094;2022-11-20T06:32:28;7.38;;;1.50;;
20792;SDS011;10556;-33.662;151.094;2022-11-20T06:37:30;2.83;;;0.93;;
20792;SDS011;10556;-33.662;151.094;2022-11-20T06:42:34;9.10;;;0.80;;
20792;SDS011;10556;-33.662;151.094;2022-11-20T06:47:37;3.70;;;0.50;;
20792;SDS011;10556;-33.662;151.094;2022-11-20T06:52:40;17.50;;;2.15;;
20792;SDS011;10556;-33.662;151.094;2022-11-20T06:57:44;25.83;;;2.78;;
20792;SDS011;10556;-33.662;151.094;2022-11-20T07:02:47;10.05;;;1.50;;
20792;SDS011;10556;-33.662;151.094;2022-11-20T07:07:49;8.33;;;0.73;;
20792;SDS011;10556;-33.662;151.094;2022-11-20T07:12:54;8.33;;;0.77;;
20792;SDS011;10556;-33.662;151.094;2022-11-20T07:17:58;7.43;;;0.67;;
20792;SDS011;10556;-33.662;151.094;2022-11-20T07:23:01;8.63;;;1.63;;
20792;SDS011;10556;-33.662;151.094;2022-11-20T07:28:06;5.07;;;1.07;;
20792;SDS011;10556;-33.662;151.094;2022-11-20T07:33:08;1.40;;;0.30;;
20792;SDS011;10556;-33.662;151.094;2022-11-20T07:38:11;2.20;;;0.17;;
20792;SDS011;10556;-33.662;151.094;2022-11-20T07:43:15;4.87;;;0.60;;
20792;SDS011;10556;-33.662;151.094;2022-11-20T07:48:18;0.60;;;0.30;;
20792;SDS011;10556;-33.662;151.094;2022-11-20T07:53:20;3.27;;;0.27;;
20792;SDS011;10556;-33.662;151.094;2022-11-20T07:58:25;1.50;;;0.50;;
20792;SDS011;10556;-33.662;151.094;2022-11-20T08:03:29;0.67;;;0.10;;
20792;SDS011;10556;-33.662;151.094;2022-11-20T08:08:32;1.13;;;0.50;;
20792;SDS011;10556;-33.662;151.094;2022-11-20T08:13:36;2.43;;;0.40;;
20792;SDS011;10556;-33.662;151.094;2022-11-20T08:18:39;0.80;;;0.40;;
20792;SDS011;10556;-33.662;151.094;2022-11-20T08:23:41;2.83;;;0.20;;
20792;SDS011;10556;-33.662;151.094;2022-11-20T08:28:46;2.53;;;0.20;;
20792;SDS011;10556;-33.662;151.094;2022-11-20T08:33:48;2.83;;;0.20;;
20792;SDS011;10556;-33.662;151.094;2022-11-20T08:38:51;0.50;;;0.20;;
20792;SDS011;10556;-33.662;151.094;2022-11-20T08:43:57;0.17;;;0.10;;
20792;SDS011;10556;-33.662;151.094;2022-11-20T08:49:01;0.50;;;0.10;;
20792;SDS011;10556;-33.662;151.094;2022-11-20T08:54:04;0.40;;;0.10;;
20792;SDS011;10556;-33.662;151.094;2022-11-20T08:59:09;0.23;;;0.20;;
20792;SDS011;10556;-33.662;151.094;2022-11-20T09:04:11;5.07;;;0.20;;
20792;SDS011;10556;-33.662;151.094;2022-11-20T09:09:14;0.00;;;0.00;;
20792;SDS011;10556;-33.662;151.094;2022-11-20T09:14:18;1.60;;;0.20;;
20792;SDS011;10556;-33.662;151.094;2022-11-20T09:19:21;0.27;;;0.10;;
20792;SDS011;10556;-33.662;151.094;2022-11-20T09:24:25;1.27;;;0.20;;
20792;SDS011;10556;-33.662;151.094;2022-11-20T09:29:29;3.60;;;0.20;;
20792;SDS011;10556;-33.662;151.094;2022-11-20T09:34:32;0.30;;;0.20;;
20792;SDS011;10556;-33.662;151.094;2022-11-20T09:39:34;2.43;;;0.20;;
20792;SDS011;10556;-33.662;151.094;2022-11-20T09:44:45;0.47;;;0.17;;
20792;SDS011;10556;-33.662;151.094;2022-11-20T09:49:59;0.43;;;0.10;;
20792;SDS011;10556;-33.662;151.094;2022-11-20T09:55:16;1.50;;;0.03;;
20792;SDS011;10556;-33.662;151.094;2022-11-20T10:00:21;0.93;;;0.10;;
20792;SDS011;10556;-33.662;151.094;2022-11-20T10:05:25;0.20;;;0.10;;
20792;SDS011;10556;-33.662;151.094;2022-11-20T10:10:33;0.67;;;0.27;;
20792;SDS011;10556;-33.662;151.094;2022-11-20T10:15:44;0.40;;;0.10;;
20792;SDS011;10556;-33.662;151.094;2022-11-20T10:20:56;0.43;;;0.20;;
20792;SDS011;10556;-33.662;151.094;2022-11-20T10:26:07;0.20;;;0.00;;
20792;SDS011;10556;-33.662;151.094;2022-11-20T10:31:24;0.40;;;0.10;;
20792;SDS011;10556;-33.662;151.094;2022-11-20T10:36:32;0.97;;;0.20;;
20792;SDS011;10556;-33.662;151.094;2022-11-20T10:41:40;2.37;;;0.30;;
20792;SDS011;10556;-33.662;151.094;2022-11-20T10:46:46;1.33;;;0.20;;
20792;SDS011;10556;-33.662;151.094;2022-11-20T10:51:52;0.20;;;0.10;;
20792;SDS011;10556;-33.662;151.094;2022-11-20T10:57:00;0.70;;;0.10;;
20792;SDS011;10556;-33.662;151.094;2022-11-20T11:02:17;0.77;;;0.20;;
20792;SDS011;10556;-33.662;151.094;2022-11-20T11:07:21;0.43;;;0.10;;
20792;SDS011;10556;-33.662;151.094;2022-11-20T11:12:27;1.20;;;0.20;;
20792;SDS011;10556;-33.662;151.094;2022-11-20T11:17:33;4.27;;;0.20;;
20792;SDS011;10556;-33.662;151.094;2022-11-20T11:22:42;1.33;;;0.20;;
20792;SDS011;10556;-33.662;151.094;2022-11-20T11:27:47;0.57;;;0.30;;
20792;SDS011;10556;-33.662;151.094;2022-11-20T11:33:01;0.30;;;0.20;;
20792;SDS011;10556;-33.662;151.094;2022-11-20T11:38:06;0.70;;;0.20;;
20792;SDS011;10556;-33.662;151.094;2022-11-20T11:43:17;1.50;;;0.23;;
20792;SDS011;10556;-33.662;151.094;2022-11-20T11:48:24;4.23;;;0.30;;
20792;SDS011;10556;-33.662;151.094;2022-11-20T11:53:27;0.60;;;0.20;;
20792;SDS011;10556;-33.662;151.094;2022-11-20T11:58:38;0.17;;;0.10;;
20792;SDS011;10556;-33.662;151.094;2022-11-20T12:03:48;4.23;;;0.20;;
20792;SDS011;10556;-33.662;151.094;2022-11-20T12:08:59;0.40;;;0.20;;
20792;SDS011;10556;-33.662;151.094;2022-11-20T12:14:08;0.60;;;0.23;;
20792;SDS011;10556;-33.662;151.094;2022-11-20T12:19:17;1.50;;;0.20;;
20792;SDS011;10556;-33.662;151.094;2022-11-20T12:29:52;1.60;;;0.10;;
20792;SDS011;10556;-33.662;151.094;2022-11-20T12:35:03;0.77;;;0.20;;
20792;SDS011;10556;-33.662;151.094;2022-11-20T12:40:18;0.30;;;0.10;;
20792;SDS011;10556;-33.662;151.094;2022-11-20T12:51:06;0.53;;;0.17;;
20792;SDS011;10556;-33.662;151.094;2022-11-20T12:56:23;1.60;;;0.30;;
20792;SDS011;10556;-33.662;151.094;2022-11-20T13:01:32;2.00;;;0.20;;
20792;SDS011;10556;-33.662;151.094;2022-11-20T13:06:43;2.97;;;0.20;;
20792;SDS011;10556;-33.662;151.094;2022-11-20T13:11:47;0.50;;;0.17;;
20792;SDS011;10556;-33.662;151.094;2022-11-20T13:16:58;1.03;;;0.10;;
20792;SDS011;10556;-33.662;151.094;2022-11-20T13:22:09;1.30;;;0.20;;
20792;SDS011;10556;-33.662;151.094;2022-11-20T13:27:19;0.83;;;0.20;;
20792;SDS011;10556;-33.662;151.094;2022-11-20T13:32:22;1.40;;;0.10;;
20792;SDS011;10556;-33.662;151.094;2022-11-20T13:37:29;5.53;;;0.30;;
20792;SDS011;10556;-33.662;151.094;2022-11-20T13:42:34;1.17;;;0.40;;
20792;SDS011;10556;-33.662;151.094;2022-11-20T13:47:46;0.50;;;0.23;;
20792;SDS011;10556;-33.662;151.094;2022-11-20T13:52:54;1.50;;;0.20;;
20792;SDS011;10556;-33.662;151.094;2022-11-20T13:58:05;2.20;;;0.20;;
20792;SDS011;10556;-33.662;151.094;2022-11-20T14:03:25;1.10;;;0.27;;
20792;SDS011;10556;-33.662;151.094;2022-11-20T14:08:36;0.97;;;0.30;;
20792;SDS011;10556;-33.662;151.094;2022-11-20T14:13:50;0.57;;;0.17;;
20792;SDS011;10556;-33.662;151.094;2022-11-20T14:18:55;1.37;;;0.27;;
20792;SDS011;10556;-33.662;151.094;2022-11-20T14:24:09;1.13;;;0.10;;
20792;SDS011;10556;-33.662;151.094;2022-11-20T14:29:13;1.00;;;0.27;;
20792;SDS011;10556;-33.662;151.094;2022-11-20T14:34:18;0.77;;;0.20;;
20792;SDS011;10556;-33.662;151.094;2022-11-20T14:39:25;0.97;;;0.20;;
20792;SDS011;10556;-33.662;151.094;2022-11-20T14:44:32;0.90;;;0.23;;
20792;SDS011;10556;-33.662;151.094;2022-11-20T14:49:35;0.50;;;0.23;;
20792;SDS011;10556;-33.662;151.094;2022-11-20T14:54:45;1.33;;;0.20;;
20792;SDS011;10556;-33.662;151.094;2022-11-20T14:59:49;0.80;;;0.10;;
20792;SDS011;10556;-33.662;151.094;2022-11-20T15:04:57;1.27;;;0.23;;
20792;SDS011;10556;-33.662;151.094;2022-11-20T15:10:03;2.73;;;0.17;;
20792;SDS011;10556;-33.662;151.094;2022-11-20T15:15:09;0.43;;;0.20;;
20792;SDS011;10556;-33.662;151.094;2022-11-20T15:20:16;0.30;;;0.20;;
20792;SDS011;10556;-33.662;151.094;2022-11-20T15:25:21;2.40;;;0.30;;
20792;SDS011;10556;-33.662;151.094;2022-11-20T15:30:23;0.93;;;0.20;;
20792;SDS011;10556;-33.662;151.094;2022-11-20T15:35:26;1.20;;;0.20;;
20792;SDS011;10556;-33.662;151.094;2022-11-20T15:40:30;0.90;;;0.30;;
20792;SDS011;10556;-33.662;151.094;2022-11-20T15:45:37;0.40;;;0.27;;
20792;SDS011;10556;-33.662;151.094;2022-11-20T15:50:46;1.23;;;0.20;;
20792;SDS011;10556;-33.662;151.094;2022-11-20T15:55:57;1.63;;;0.40;;
20792;SDS011;10556;-33.662;151.094;2022-11-20T16:01:00;0.80;;;0.40;;
20792;SDS011;10556;-33.662;151.094;2022-11-20T16:06:03;2.37;;;0.40;;
20792;SDS011;10556;-33.662;151.094;2022-11-20T16:11:09;1.30;;;0.20;;
20792;SDS011;10556;-33.662;151.094;2022-11-20T16:16:17;2.67;;;0.30;;
20792;SDS011;10556;-33.662;151.094;2022-11-20T16:21:22;0.40;;;0.30;;
20792;SDS011;10556;-33.662;151.094;2022-11-20T16:26:27;0.57;;;0.20;;
20792;SDS011;10556;-33.662;151.094;2022-11-20T16:31:30;0.97;;;0.10;;
20792;SDS011;10556;-33.662;151.094;2022-11-20T16:36:33;1.80;;;0.30;;
20792;SDS011;10556;-33.662;151.094;2022-11-20T16:41:37;0.80;;;0.20;;
20792;SDS011;10556;-33.662;151.094;2022-11-20T16:46:40;1.57;;;0.30;;
20792;SDS011;10556;-33.662;151.094;2022-11-20T16:51:48;1.10;;;0.20;;
20792;SDS011;10556;-33.662;151.094;2022-11-20T16:56:52;0.80;;;0.27;;
20792;SDS011;10556;-33.662;151.094;2022-11-20T17:01:55;2.43;;;0.50;;
20792;SDS011;10556;-33.662;151.094;2022-11-20T17:06:57;1.27;;;0.23;;
20792;SDS011;10556;-33.662;151.094;2022-11-20T17:12:02;1.10;;;0.20;;
20792;SDS011;10556;-33.662;151.094;2022-11-20T17:17:05;1.30;;;0.30;;
20792;SDS011;10556;-33.662;151.094;2022-11-20T17:22:07;1.80;;;0.30;;
20792;SDS011;10556;-33.662;151.094;2022-11-20T17:27:12;2.47;;;0.53;;
20792;SDS011;10556;-33.662;151.094;2022-11-20T17:32:14;3.40;;;0.47;;
20792;SDS011;10556;-33.662;151.094;2022-11-20T17:37:17;3.23;;;0.40;;
20792;SDS011;10556;-33.662;151.094;2022-11-20T17:42:21;2.90;;;0.50;;
20792;SDS011;10556;-33.662;151.094;2022-11-20T17:47:24;1.13;;;0.30;;
20792;SDS011;10556;-33.662;151.094;2022-11-20T17:52:27;1.33;;;0.23;;
20792;SDS011;10556;-33.662;151.094;2022-11-20T17:57:31;2.90;;;0.50;;
20792;SDS011;10556;-33.662;151.094;2022-11-20T18:02:34;1.43;;;0.30;;
20792;SDS011;10556;-33.662;151.094;2022-11-20T18:07:36;0.63;;;0.20;;
20792;SDS011;10556;-33.662;151.094;2022-11-20T18:12:41;1.80;;;0.53;;
20792;SDS011;10556;-33.662;151.094;2022-11-20T18:17:43;0.83;;;0.30;;
20792;SDS011;10556;-33.662;151.094;2022-11-20T18:22:46;1.37;;;0.20;;
20792;SDS011;10556;-33.662;151.094;2022-11-20T18:27:50;2.43;;;0.37;;
20792;SDS011;10556;-33.662;151.094;2022-11-20T18:32:53;1.10;;;0.33;;
20792;SDS011;10556;-33.662;151.094;2022-11-20T18:37:55;1.27;;;0.37;;
20792;SDS011;10556;-33.662;151.094;2022-11-20T18:43:00;2.30;;;0.40;;
20792;SDS011;10556;-33.662;151.094;2022-11-20T18:48:02;2.20;;;0.40;;
20792;SDS011;10556;-33.662;151.094;2022-11-20T18:53:05;2.13;;;0.40;;
20792;SDS011;10556;-33.662;151.094;2022-11-20T18:58:09;1.17;;;0.30;;
20792;SDS011;10556;-33.662;151.094;2022-11-20T19:03:12;2.00;;;0.50;;
20792;SDS011;10556;-33.662;151.094;2022-11-20T19:08:15;0.63;;;0.20;;
20792;SDS011;10556;-33.662;151.094;2022-11-20T19:13:19;3.90;;;0.30;;
20792;SDS011;10556;-33.662;151.094;2022-11-20T19:18:22;2.23;;;0.40;;
20792;SDS011;10556;-33.662;151.094;2022-11-20T19:23:24;3.07;;;0.50;;
20792;SDS011;10556;-33.662;151.094;2022-11-20T19:28:28;1.33;;;0.30;;
20792;SDS011;10556;-33.662;151.094;2022-11-20T19:33:31;0.93;;;0.60;;
20792;SDS011;10556;-33.662;151.094;2022-11-20T19:38:34;1.40;;;0.30;;
20792;SDS011;10556;-33.662;151.094;2022-11-20T19:43:39;2.10;;;0.40;;
20792;SDS011;10556;-33.662;151.094;2022-11-20T19:48:42;1.60;;;0.40;;
20792;SDS011;10556;-33.662;151.094;2022-11-20T19:53:45;2.80;;;0.40;;
20792;SDS011;10556;-33.662;151.094;2022-11-20T19:58:49;5.43;;;0.50;;
20792;SDS011;10556;-33.662;151.094;2022-11-20T20:03:53;0.97;;;0.20;;
20792;SDS011;10556;-33.662;151.094;2022-11-20T20:08:57;0.60;;;0.30;;
20792;SDS011;10556;-33.662;151.094;2022-11-20T20:14:03;1.33;;;0.27;;
20792;SDS011;10556;-33.662;151.094;2022-11-20T20:19:09;2.10;;;0.40;;
20792;SDS011;10556;-33.662;151.094;2022-11-20T20:24:13;2.63;;;0.43;;
20792;SDS011;10556;-33.662;151.094;2022-11-20T20:29:18;2.10;;;0.40;;
20792;SDS011;10556;-33.662;151.094;2022-11-20T20:34:20;2.67;;;0.20;;
20792;SDS011;10556;-33.662;151.094;2022-11-20T20:39:23;0.60;;;0.30;;
20792;SDS011;10556;-33.662;151.094;2022-11-20T20:44:27;0.63;;;0.30;;
20792;SDS011;10556;-33.662;151.094;2022-11-20T20:49:30;4.00;;;0.50;;
20792;SDS011;10556;-33.662;151.094;2022-11-20T20:54:34;2.27;;;0.60;;
20792;SDS011;10556;-33.662;151.094;2022-11-20T20:59:38;1.50;;;0.40;;
20792;SDS011;10556;-33.662;151.094;2022-11-20T21:04:41;1.70;;;0.50;;
20792;SDS011;10556;-33.662;151.094;2022-11-20T21:09:43;0.77;;;0.43;;
20792;SDS011;10556;-33.662;151.094;2022-11-20T21:14:48;1.07;;;0.40;;
20792;SDS011;10556;-33.662;151.094;2022-11-20T21:19:50;2.00;;;0.43;;
20792;SDS011;10556;-33.662;151.094;2022-11-20T21:24:53;5.97;;;0.70;;
20792;SDS011;10556;-33.662;151.094;2022-11-20T21:29:57;2.27;;;0.40;;
20792;SDS011;10556;-33.662;151.094;2022-11-20T21:35:00;2.50;;;0.60;;
20792;SDS011;10556;-33.662;151.094;2022-11-20T21:40:02;0.90;;;0.50;;
20792;SDS011;10556;-33.662;151.094;2022-11-20T21:45:07;3.60;;;0.50;;
20792;SDS011;10556;-33.662;151.094;2022-11-20T21:50:10;3.63;;;0.53;;
20792;SDS011;10556;-33.662;151.094;2022-11-20T21:55:13;1.60;;;0.50;;
20792;SDS011;10556;-33.662;151.094;2022-11-20T22:00:17;5.03;;;0.70;;
20792;SDS011;10556;-33.662;151.094;2022-11-20T22:05:20;4.00;;;0.50;;
20792;SDS011;10556;-33.662;151.094;2022-11-20T22:10:23;4.17;;;0.50;;
20792;SDS011;10556;-33.662;151.094;2022-11-20T22:15:27;2.40;;;0.40;;
20792;SDS011;10556;-33.662;151.094;2022-11-20T22:20:30;3.10;;;0.47;;
20792;SDS011;10556;-33.662;151.094;2022-11-20T22:25:32;2.37;;;0.37;;
20792;SDS011;10556;-33.662;151.094;2022-11-20T22:30:37;3.77;;;0.30;;
20792;SDS011;10556;-33.662;151.094;2022-11-20T22:35:39;3.03;;;0.40;;
20792;SDS011;10556;-33.662;151.094;2022-11-20T22:40:42;0.67;;;0.30;;
20792;SDS011;10556;-33.662;151.094;2022-11-20T22:45:46;1.03;;;0.40;;
20792;SDS011;10556;-33.662;151.094;2022-11-20T22:50:49;1.67;;;0.30;;
20792;SDS011;10556;-33.662;151.094;2022-11-20T22:55:51;2.20;;;0.40;;
20792;SDS011;10556;-33.662;151.094;2022-11-20T23:00:56;2.97;;;0.60;;
20792;SDS011;10556;-33.662;151.094;2022-11-20T23:06:10;2.00;;;0.50;;
20792;SDS011;10556;-33.662;151.094;2022-11-20T23:11:14;2.77;;;0.50;;
20792;SDS011;10556;-33.662;151.094;2022-11-20T23:16:19;0.70;;;0.30;;
20792;SDS011;10556;-33.662;151.094;2022-11-20T23:21:24;1.70;;;0.30;;
20792;SDS011;10556;-33.662;151.094;2022-11-20T23:26:27;1.57;;;0.33;;
20792;SDS011;10556;-33.662;151.094;2022-11-20T23:31:34;4.13;;;0.33;;
20792;SDS011;10556;-33.662;151.094;2022-11-20T23:36:36;3.57;;;0.40;;
20792;SDS011;10556;-33.662;151.094;2022-11-20T23:41:39;0.93;;;0.30;;
20792;SDS011;10556;-33.662;151.094;2022-11-20T23:46:43;0.80;;;0.20;;
20792;SDS011;10556;-33.662;151.094;2022-11-20T23:51:46;1.60;;;0.23;;
20792;SDS011;10556;-33.662;151.094;2022-11-20T23:56:48;2.53;;;0.40;;
